sensor_id;sensor_type;location;lat;lon;timestamp;temperature;humidity
14850;DHT22;7517;48.400;11.770;2024-01-16T00:02:14;5.10;62.70
14850;DHT22;7517;48.400;11.770;2024-01-16T00:04:42;5.10;62.70
14850;DHT22;7517;48.400;11.770;2024-01-16T00:07:09;5.10;62.60
14850;DHT22;7517;48.400;11.770;2024-01-16T00:09:38;5.10;62.60
14850;DHT22;7517;48.400;11.770;2024-01-16T00:12:07;5.10;62.30
14850;DHT22;7517;48.400;11.770;2024-01-16T00:14:35;5.10;62.50
14850;DHT22;7517;48.400;11.770;2024-01-16T00:17:04;5.10;62.70
14850;DHT22;7517;48.400;11.770;2024-01-16T00:19:32;5.10;62.70
14850;DHT22;7517;48.400;11.770;2024-01-16T00:21:59;5.20;62.40
14850;DHT22;7517;48.400;11.770;2024-01-16T00:24:28;5.10;62.30
14850;DHT22;7517;48.400;11.770;2024-01-16T00:26:57;5.10;62.20
14850;DHT22;7517;48.400;11.770;2024-01-16T00:29:24;5.10;62.20
14850;DHT22;7517;48.400;11.770;2024-01-16T00:31:51;5.00;62.20
14850;DHT22;7517;48.400;11.770;2024-01-16T00:34:18;5.10;62.40
14850;DHT22;7517;48.400;11.770;2024-01-16T00:36:45;5.10;62.30
14850;DHT22;7517;48.400;11.770;2024-01-16T00:39:13;5.10;62.50
14850;DHT22;7517;48.400;11.770;2024-01-16T00:41:40;5.10;63.10
14850;DHT22;7517;48.400;11.770;2024-01-16T00:44:10;5.10;62.20
14850;DHT22;7517;48.400;11.770;2024-01-16T00:46:38;5.10;62.00
14850;DHT22;7517;48.400;11.770;2024-01-16T00:49:05;5.10;62.20
14850;DHT22;7517;48.400;11.770;2024-01-16T00:51:33;5.10;62.00
14850;DHT22;7517;48.400;11.770;2024-01-16T00:54:00;5.10;62.20
14850;DHT22;7517;48.400;11.770;2024-01-16T00:56:27;5.10;62.20
14850;DHT22;7517;48.400;11.770;2024-01-16T00:58:58;5.10;62.20
14850;DHT22;7517;48.400;11.770;2024-01-16T01:01:26;5.10;62.10
14850;DHT22;7517;48.400;11.770;2024-01-16T01:03:54;5.10;62.20
14850;DHT22;7517;48.400;11.770;2024-01-16T01:06:21;5.10;62.20
14850;DHT22;7517;48.400;11.770;2024-01-16T01:08:48;5.10;62.00
14850;DHT22;7517;48.400;11.770;2024-01-16T01:11:17;5.10;61.90
14850;DHT22;7517;48.400;11.770;2024-01-16T01:13:44;5.10;61.80
14850;DHT22;7517;48.400;11.770;2024-01-16T01:16:11;5.10;61.90
14850;DHT22;7517;48.400;11.770;2024-01-16T01:18:40;5.10;61.90
14850;DHT22;7517;48.400;11.770;2024-01-16T01:21:07;5.10;61.80
14850;DHT22;7517;48.400;11.770;2024-01-16T01:23:36;5.10;61.80
14850;DHT22;7517;48.400;11.770;2024-01-16T01:26:04;5.10;61.80
14850;DHT22;7517;48.400;11.770;2024-01-16T01:28:33;5.10;61.80
14850;DHT22;7517;48.400;11.770;2024-01-16T01:31:00;5.10;61.70
14850;DHT22;7517;48.400;11.770;2024-01-16T01:33:27;5.10;61.80
14850;DHT22;7517;48.400;11.770;2024-01-16T01:35:56;5.00;62.40
14850;DHT22;7517;48.400;11.770;2024-01-16T01:38:23;5.00;61.40
14850;DHT22;7517;48.400;11.770;2024-01-16T01:40:50;5.10;61.40
14850;DHT22;7517;48.400;11.770;2024-01-16T01:43:18;5.00;61.30
14850;DHT22;7517;48.400;11.770;2024-01-16T01:45:56;5.00;61.30
14850;DHT22;7517;48.400;11.770;2024-01-16T01:48:36;5.00;61.10
14850;DHT22;7517;48.400;11.770;2024-01-16T01:51:07;4.90;61.10
14850;DHT22;7517;48.400;11.770;2024-01-16T01:53:35;4.90;61.00
14850;DHT22;7517;48.400;11.770;2024-01-16T01:56:04;4.90;61.00
14850;DHT22;7517;48.400;11.770;2024-01-16T01:58:36;4.90;61.00
14850;DHT22;7517;48.400;11.770;2024-01-16T02:01:06;4.90;61.00
14850;DHT22;7517;48.400;11.770;2024-01-16T02:03:39;4.80;60.90
14850;DHT22;7517;48.400;11.770;2024-01-16T02:06:10;4.80;61.10
14850;DHT22;7517;48.400;11.770;2024-01-16T02:08:39;4.90;61.00
14850;DHT22;7517;48.400;11.770;2024-01-16T02:11:07;4.80;60.90
14850;DHT22;7517;48.400;11.770;2024-01-16T02:13:35;4.80;61.00
14850;DHT22;7517;48.400;11.770;2024-01-16T02:16:05;4.80;61.80
14850;DHT22;7517;48.400;11.770;2024-01-16T02:18:32;4.80;61.00
14850;DHT22;7517;48.400;11.770;2024-01-16T02:21:00;4.80;61.80
14850;DHT22;7517;48.400;11.770;2024-01-16T02:23:33;4.80;61.00
14850;DHT22;7517;48.400;11.770;2024-01-16T02:26:01;4.80;60.90
14850;DHT22;7517;48.400;11.770;2024-01-16T02:28:29;4.80;61.00
14850;DHT22;7517;48.400;11.770;2024-01-16T02:30:57;4.70;61.00
14850;DHT22;7517;48.400;11.770;2024-01-16T02:33:24;4.70;61.10
14850;DHT22;7517;48.400;11.770;2024-01-16T02:35:50;4.70;60.80
14850;DHT22;7517;48.400;11.770;2024-01-16T02:38:17;4.70;60.80
14850;DHT22;7517;48.400;11.770;2024-01-16T02:40:48;4.70;60.60
14850;DHT22;7517;48.400;11.770;2024-01-16T02:43:17;4.70;60.60
14850;DHT22;7517;48.400;11.770;2024-01-16T02:45:46;4.60;60.50
14850;DHT22;7517;48.400;11.770;2024-01-16T02:48:13;4.60;60.70
14850;DHT22;7517;48.400;11.770;2024-01-16T02:50:41;4.60;60.50
14850;DHT22;7517;48.400;11.770;2024-01-16T02:53:08;4.60;60.60
14850;DHT22;7517;48.400;11.770;2024-01-16T02:55:35;4.60;60.80
14850;DHT22;7517;48.400;11.770;2024-01-16T02:58:04;4.50;60.90
14850;DHT22;7517;48.400;11.770;2024-01-16T03:00:31;4.60;61.00
14850;DHT22;7517;48.400;11.770;2024-01-16T03:02:58;4.50;60.90
14850;DHT22;7517;48.400;11.770;2024-01-16T03:05:25;4.50;61.00
14850;DHT22;7517;48.400;11.770;2024-01-16T03:07:53;4.60;61.00
14850;DHT22;7517;48.400;11.770;2024-01-16T03:10:21;4.60;61.10
14850;DHT22;7517;48.400;11.770;2024-01-16T03:12:48;4.60;60.90
14850;DHT22;7517;48.400;11.770;2024-01-16T03:15:17;4.50;60.70
14850;DHT22;7517;48.400;11.770;2024-01-16T03:17:46;4.50;60.50
14850;DHT22;7517;48.400;11.770;2024-01-16T03:20:14;4.50;60.50
14850;DHT22;7517;48.400;11.770;2024-01-16T03:22:45;4.50;60.60
14850;DHT22;7517;48.400;11.770;2024-01-16T03:25:12;4.50;60.40
14850;DHT22;7517;48.400;11.770;2024-01-16T03:27:40;4.50;60.40
14850;DHT22;7517;48.400;11.770;2024-01-16T03:30:08;4.50;60.30
14850;DHT22;7517;48.400;11.770;2024-01-16T03:32:49;4.50;60.40
14850;DHT22;7517;48.400;11.770;2024-01-16T03:35:16;4.50;60.30
14850;DHT22;7517;48.400;11.770;2024-01-16T03:37:43;4.50;60.70
14850;DHT22;7517;48.400;11.770;2024-01-16T03:40:11;4.50;60.50
14850;DHT22;7517;48.400;11.770;2024-01-16T03:42:39;4.40;60.20
14850;DHT22;7517;48.400;11.770;2024-01-16T03:45:06;4.40;60.30
14850;DHT22;7517;48.400;11.770;2024-01-16T03:47:35;4.40;60.50
14850;DHT22;7517;48.400;11.770;2024-01-16T03:50:08;4.30;60.50
14850;DHT22;7517;48.400;11.770;2024-01-16T03:52:36;4.30;60.30
14850;DHT22;7517;48.400;11.770;2024-01-16T03:55:03;4.30;60.30
14850;DHT22;7517;48.400;11.770;2024-01-16T03:57:32;4.30;60.20
14850;DHT22;7517;48.400;11.770;2024-01-16T03:59:59;4.20;60.70
14850;DHT22;7517;48.400;11.770;2024-01-16T04:02:30;4.20;60.00
14850;DHT22;7517;48.400;11.770;2024-01-16T04:04:58;4.10;60.00
14850;DHT22;7517;48.400;11.770;2024-01-16T04:07:26;4.10;60.00
14850;DHT22;7517;48.400;11.770;2024-01-16T04:09:55;4.00;60.50
14850;DHT22;7517;48.400;11.770;2024-01-16T04:12:22;4.00;59.80
14850;DHT22;7517;48.400;11.770;2024-01-16T04:14:49;3.80;60.50
14850;DHT22;7517;48.400;11.770;2024-01-16T04:17:17;3.90;60.10
14850;DHT22;7517;48.400;11.770;2024-01-16T04:19:44;3.80;60.10
14850;DHT22;7517;48.400;11.770;2024-01-16T04:22:11;3.80;60.20
14850;DHT22;7517;48.400;11.770;2024-01-16T04:24:39;3.70;60.40
14850;DHT22;7517;48.400;11.770;2024-01-16T04:27:07;3.70;60.50
14850;DHT22;7517;48.400;11.770;2024-01-16T04:29:36;3.70;60.70
14850;DHT22;7517;48.400;11.770;2024-01-16T04:32:03;3.70;60.80
14850;DHT22;7517;48.400;11.770;2024-01-16T04:34:31;3.60;61.00
14850;DHT22;7517;48.400;11.770;2024-01-16T04:36:58;3.60;61.00
14850;DHT22;7517;48.400;11.770;2024-01-16T04:39:25;3.60;60.80
14850;DHT22;7517;48.400;11.770;2024-01-16T04:41:54;3.60;61.20
14850;DHT22;7517;48.400;11.770;2024-01-16T04:44:21;3.60;61.30
14850;DHT22;7517;48.400;11.770;2024-01-16T04:46:48;3.60;61.40
14850;DHT22;7517;48.400;11.770;2024-01-16T04:49:17;3.60;61.40
14850;DHT22;7517;48.400;11.770;2024-01-16T04:51:44;3.60;61.10
14850;DHT22;7517;48.400;11.770;2024-01-16T04:54:13;3.60;61.20
14850;DHT22;7517;48.400;11.770;2024-01-16T04:56:41;3.70;61.30
14850;DHT22;7517;48.400;11.770;2024-01-16T04:59:10;3.70;61.70
14850;DHT22;7517;48.400;11.770;2024-01-16T05:01:37;3.70;61.60
14850;DHT22;7517;48.400;11.770;2024-01-16T05:04:04;3.60;60.70
14850;DHT22;7517;48.400;11.770;2024-01-16T05:06:34;3.60;61.00
14850;DHT22;7517;48.400;11.770;2024-01-16T05:09:01;3.60;61.10
14850;DHT22;7517;48.400;11.770;2024-01-16T05:11:29;3.60;61.10
14850;DHT22;7517;48.400;11.770;2024-01-16T05:13:56;3.60;61.10
14850;DHT22;7517;48.400;11.770;2024-01-16T05:16:25;3.60;60.80
14850;DHT22;7517;48.400;11.770;2024-01-16T05:18:52;3.50;60.60
14850;DHT22;7517;48.400;11.770;2024-01-16T05:21:19;3.50;60.50
14850;DHT22;7517;48.400;11.770;2024-01-16T05:23:47;3.50;61.10
14850;DHT22;7517;48.400;11.770;2024-01-16T05:26:14;3.40;60.40
14850;DHT22;7517;48.400;11.770;2024-01-16T05:28:41;3.40;60.50
14850;DHT22;7517;48.400;11.770;2024-01-16T05:31:08;3.30;60.60
14850;DHT22;7517;48.400;11.770;2024-01-16T05:33:36;3.30;60.60
14850;DHT22;7517;48.400;11.770;2024-01-16T05:36:04;3.30;60.60
14850;DHT22;7517;48.400;11.770;2024-01-16T05:38:31;3.20;60.60
14850;DHT22;7517;48.400;11.770;2024-01-16T05:40:59;3.20;60.80
14850;DHT22;7517;48.400;11.770;2024-01-16T05:43:26;3.10;60.70
14850;DHT22;7517;48.400;11.770;2024-01-16T05:45:55;3.10;60.90
14850;DHT22;7517;48.400;11.770;2024-01-16T05:48:22;3.00;61.00
14850;DHT22;7517;48.400;11.770;2024-01-16T05:50:51;3.00;61.10
14850;DHT22;7517;48.400;11.770;2024-01-16T05:53:18;3.00;61.00
14850;DHT22;7517;48.400;11.770;2024-01-16T05:55:45;2.90;60.90
14850;DHT22;7517;48.400;11.770;2024-01-16T05:58:12;2.90;61.20
14850;DHT22;7517;48.400;11.770;2024-01-16T06:00:40;2.90;61.00
14850;DHT22;7517;48.400;11.770;2024-01-16T06:03:07;2.80;61.20
14850;DHT22;7517;48.400;11.770;2024-01-16T06:05:34;2.80;61.30
14850;DHT22;7517;48.400;11.770;2024-01-16T06:08:03;2.80;61.30
14850;DHT22;7517;48.400;11.770;2024-01-16T06:10:30;2.80;61.20
14850;DHT22;7517;48.400;11.770;2024-01-16T06:12:57;2.80;61.50
14850;DHT22;7517;48.400;11.770;2024-01-16T06:15:24;2.80;61.60
14850;DHT22;7517;48.400;11.770;2024-01-16T06:17:52;2.70;61.60
14850;DHT22;7517;48.400;11.770;2024-01-16T06:20:19;2.70;61.50
14850;DHT22;7517;48.400;11.770;2024-01-16T06:22:49;2.70;61.70
14850;DHT22;7517;48.400;11.770;2024-01-16T06:25:18;2.70;61.70
14850;DHT22;7517;48.400;11.770;2024-01-16T06:27:45;2.70;61.70
14850;DHT22;7517;48.400;11.770;2024-01-16T06:30:12;2.70;61.70
14850;DHT22;7517;48.400;11.770;2024-01-16T06:32:40;2.70;61.50
14850;DHT22;7517;48.400;11.770;2024-01-16T06:35:07;2.70;61.40
14850;DHT22;7517;48.400;11.770;2024-01-16T06:37:35;2.70;61.50
14850;DHT22;7517;48.400;11.770;2024-01-16T06:40:04;2.70;61.40
14850;DHT22;7517;48.400;11.770;2024-01-16T06:42:33;2.70;61.40
14850;DHT22;7517;48.400;11.770;2024-01-16T06:45:01;2.70;61.60
14850;DHT22;7517;48.400;11.770;2024-01-16T06:47:29;2.70;61.60
14850;DHT22;7517;48.400;11.770;2024-01-16T06:49:56;2.70;61.40
14850;DHT22;7517;48.400;11.770;2024-01-16T06:52:23;2.70;61.20
14850;DHT22;7517;48.400;11.770;2024-01-16T06:54:50;2.70;61.20
14850;DHT22;7517;48.400;11.770;2024-01-16T06:57:18;2.70;61.20
14850;DHT22;7517;48.400;11.770;2024-01-16T06:59:47;2.60;61.30
14850;DHT22;7517;48.400;11.770;2024-01-16T07:02:15;2.60;61.10
14850;DHT22;7517;48.400;11.770;2024-01-16T07:04:42;2.60;61.10
14850;DHT22;7517;48.400;11.770;2024-01-16T07:07:12;2.60;61.10
14850;DHT22;7517;48.400;11.770;2024-01-16T07:09:39;2.60;61.30
14850;DHT22;7517;48.400;11.770;2024-01-16T07:12:06;2.50;61.30
14850;DHT22;7517;48.400;11.770;2024-01-16T07:14:34;2.50;61.50
14850;DHT22;7517;48.400;11.770;2024-01-16T07:17:05;2.50;61.70
14850;DHT22;7517;48.400;11.770;2024-01-16T07:19:33;2.50;61.70
14850;DHT22;7517;48.400;11.770;2024-01-16T07:22:01;2.50;61.90
14850;DHT22;7517;48.400;11.770;2024-01-16T07:24:30;2.50;61.90
14850;DHT22;7517;48.400;11.770;2024-01-16T07:26:57;2.50;62.00
14850;DHT22;7517;48.400;11.770;2024-01-16T07:29:25;2.60;62.10
14850;DHT22;7517;48.400;11.770;2024-01-16T07:31:52;2.60;62.20
14850;DHT22;7517;48.400;11.770;2024-01-16T07:34:20;2.60;62.10
14850;DHT22;7517;48.400;11.770;2024-01-16T07:36:48;2.60;62.00
14850;DHT22;7517;48.400;11.770;2024-01-16T07:39:15;2.70;62.10
14850;DHT22;7517;48.400;11.770;2024-01-16T07:41:43;2.70;62.10
14850;DHT22;7517;48.400;11.770;2024-01-16T07:44:10;2.70;62.10
14850;DHT22;7517;48.400;11.770;2024-01-16T07:46:37;2.80;62.10
14850;DHT22;7517;48.400;11.770;2024-01-16T07:49:04;2.80;62.10
14850;DHT22;7517;48.400;11.770;2024-01-16T07:51:33;2.80;62.20
14850;DHT22;7517;48.400;11.770;2024-01-16T07:54:08;2.90;62.00
14850;DHT22;7517;48.400;11.770;2024-01-16T07:56:36;2.90;61.90
14850;DHT22;7517;48.400;11.770;2024-01-16T07:59:04;2.90;62.20
14850;DHT22;7517;48.400;11.770;2024-01-16T08:01:32;3.00;62.30
14850;DHT22;7517;48.400;11.770;2024-01-16T08:03:59;3.00;62.40
14850;DHT22;7517;48.400;11.770;2024-01-16T08:06:27;3.10;62.60
14850;DHT22;7517;48.400;11.770;2024-01-16T08:08:55;3.10;62.50
14850;DHT22;7517;48.400;11.770;2024-01-16T08:11:23;3.20;62.50
14850;DHT22;7517;48.400;11.770;2024-01-16T08:13:50;3.30;62.70
14850;DHT22;7517;48.400;11.770;2024-01-16T08:16:17;3.30;62.50
14850;DHT22;7517;48.400;11.770;2024-01-16T08:18:45;3.40;62.50
14850;DHT22;7517;48.400;11.770;2024-01-16T08:21:12;3.50;62.50
14850;DHT22;7517;48.400;11.770;2024-01-16T08:23:39;3.50;62.40
14850;DHT22;7517;48.400;11.770;2024-01-16T08:26:07;3.60;62.30
14850;DHT22;7517;48.400;11.770;2024-01-16T08:28:34;3.70;62.20
14850;DHT22;7517;48.400;11.770;2024-01-16T08:31:02;3.80;62.10
14850;DHT22;7517;48.400;11.770;2024-01-16T08:33:30;3.80;62.00
14850;DHT22;7517;48.400;11.770;2024-01-16T08:35:58;3.80;61.80
14850;DHT22;7517;48.400;11.770;2024-01-16T08:38:25;3.90;61.70
14850;DHT22;7517;48.400;11.770;2024-01-16T08:40:53;3.90;61.60
14850;DHT22;7517;48.400;11.770;2024-01-16T08:43:22;4.00;61.60
14850;DHT22;7517;48.400;11.770;2024-01-16T08:45:49;4.10;61.50
14850;DHT22;7517;48.400;11.770;2024-01-16T08:48:16;4.10;61.70
14850;DHT22;7517;48.400;11.770;2024-01-16T08:50:43;4.20;61.60
14850;DHT22;7517;48.400;11.770;2024-01-16T08:53:11;4.20;61.70
14850;DHT22;7517;48.400;11.770;2024-01-16T08:55:38;4.30;62.50
14850;DHT22;7517;48.400;11.770;2024-01-16T08:58:05;4.30;61.80
14850;DHT22;7517;48.400;11.770;2024-01-16T09:00:34;4.40;61.80
14850;DHT22;7517;48.400;11.770;2024-01-16T09:03:04;4.50;61.80
14850;DHT22;7517;48.400;11.770;2024-01-16T09:05:31;4.60;61.70
14850;DHT22;7517;48.400;11.770;2024-01-16T09:08:00;4.60;61.30
14850;DHT22;7517;48.400;11.770;2024-01-16T09:10:28;4.70;61.20
14850;DHT22;7517;48.400;11.770;2024-01-16T09:12:55;4.70;61.10
14850;DHT22;7517;48.400;11.770;2024-01-16T09:15:22;4.80;61.10
14850;DHT22;7517;48.400;11.770;2024-01-16T09:17:52;4.90;62.00
14850;DHT22;7517;48.400;11.770;2024-01-16T09:20:19;4.90;61.20
14850;DHT22;7517;48.400;11.770;2024-01-16T09:22:46;5.00;61.20
14850;DHT22;7517;48.400;11.770;2024-01-16T09:25:14;5.00;60.90
14850;DHT22;7517;48.400;11.770;2024-01-16T09:27:41;5.10;61.10
14850;DHT22;7517;48.400;11.770;2024-01-16T09:30:09;5.20;61.10
14850;DHT22;7517;48.400;11.770;2024-01-16T09:32:38;5.20;60.60
14850;DHT22;7517;48.400;11.770;2024-01-16T09:35:07;5.30;60.50
14850;DHT22;7517;48.400;11.770;2024-01-16T09:37:36;5.30;60.60
14850;DHT22;7517;48.400;11.770;2024-01-16T09:40:06;5.40;60.90
14850;DHT22;7517;48.400;11.770;2024-01-16T09:42:34;5.40;60.60
14850;DHT22;7517;48.400;11.770;2024-01-16T09:45:03;5.50;60.50
14850;DHT22;7517;48.400;11.770;2024-01-16T09:47:31;5.50;60.40
14850;DHT22;7517;48.400;11.770;2024-01-16T09:49:59;5.60;60.60
14850;DHT22;7517;48.400;11.770;2024-01-16T09:52:33;5.70;60.30
14850;DHT22;7517;48.400;11.770;2024-01-16T09:55:01;5.70;60.00
14850;DHT22;7517;48.400;11.770;2024-01-16T09:57:28;5.80;60.20
14850;DHT22;7517;48.400;11.770;2024-01-16T09:59:57;5.80;60.40
14850;DHT22;7517;48.400;11.770;2024-01-16T10:02:28;5.90;60.40
14850;DHT22;7517;48.400;11.770;2024-01-16T10:04:56;6.00;60.60
14850;DHT22;7517;48.400;11.770;2024-01-16T10:07:25;6.10;60.70
14850;DHT22;7517;48.400;11.770;2024-01-16T10:09:57;6.20;60.60
14850;DHT22;7517;48.400;11.770;2024-01-16T10:12:25;6.20;60.50
14850;DHT22;7517;48.400;11.770;2024-01-16T10:14:53;6.30;60.60
14850;DHT22;7517;48.400;11.770;2024-01-16T10:17:22;6.40;60.50
14850;DHT22;7517;48.400;11.770;2024-01-16T10:20:02;6.50;61.10
14850;DHT22;7517;48.400;11.770;2024-01-16T10:22:30;6.50;60.30
14850;DHT22;7517;48.400;11.770;2024-01-16T10:25:16;6.60;60.00
14850;DHT22;7517;48.400;11.770;2024-01-16T10:27:45;6.70;59.40
14850;DHT22;7517;48.400;11.770;2024-01-16T10:30:13;6.80;60.10
14850;DHT22;7517;48.400;11.770;2024-01-16T10:32:41;6.90;60.20
14850;DHT22;7517;48.400;11.770;2024-01-16T10:35:10;6.90;60.00
14850;DHT22;7517;48.400;11.770;2024-01-16T10:37:41;7.00;59.90
14850;DHT22;7517;48.400;11.770;2024-01-16T10:40:10;7.10;60.00
14850;DHT22;7517;48.400;11.770;2024-01-16T10:42:39;7.20;60.40
14850;DHT22;7517;48.400;11.770;2024-01-16T10:45:06;7.40;60.10
14850;DHT22;7517;48.400;11.770;2024-01-16T10:47:34;7.50;59.80
14850;DHT22;7517;48.400;11.770;2024-01-16T10:50:04;7.60;59.80
14850;DHT22;7517;48.400;11.770;2024-01-16T10:52:35;7.70;59.40
14850;DHT22;7517;48.400;11.770;2024-01-16T10:55:15;7.70;59.10
14850;DHT22;7517;48.400;11.770;2024-01-16T10:57:49;7.80;59.60
14850;DHT22;7517;48.400;11.770;2024-01-16T11:00:19;7.80;58.80
14850;DHT22;7517;48.400;11.770;2024-01-16T11:02:54;7.80;59.20
14850;DHT22;7517;48.400;11.770;2024-01-16T11:05:27;7.80;58.40
14850;DHT22;7517;48.400;11.770;2024-01-16T11:07:58;7.80;58.80
14850;DHT22;7517;48.400;11.770;2024-01-16T11:10:29;7.90;58.10
14850;DHT22;7517;48.400;11.770;2024-01-16T11:13:01;7.90;58.10
14850;DHT22;7517;48.400;11.770;2024-01-16T11:15:30;7.90;58.30
14850;DHT22;7517;48.400;11.770;2024-01-16T11:17:59;7.90;58.40
14850;DHT22;7517;48.400;11.770;2024-01-16T11:20:27;7.90;58.00
14850;DHT22;7517;48.400;11.770;2024-01-16T11:22:56;7.90;58.00
14850;DHT22;7517;48.400;11.770;2024-01-16T11:25:31;7.90;58.00
14850;DHT22;7517;48.400;11.770;2024-01-16T11:28:10;7.90;57.50
14850;DHT22;7517;48.400;11.770;2024-01-16T11:30:39;7.90;57.10
14850;DHT22;7517;48.400;11.770;2024-01-16T11:33:42;8.00;57.60
14850;DHT22;7517;48.400;11.770;2024-01-16T11:36:49;7.90;57.00
14850;DHT22;7517;48.400;11.770;2024-01-16T11:39:20;7.90;57.30
14850;DHT22;7517;48.400;11.770;2024-01-16T11:41:54;8.00;58.10
14850;DHT22;7517;48.400;11.770;2024-01-16T11:44:43;8.00;57.80
14850;DHT22;7517;48.400;11.770;2024-01-16T11:47:16;8.00;56.80
14850;DHT22;7517;48.400;11.770;2024-01-16T11:49:44;8.10;57.70
14850;DHT22;7517;48.400;11.770;2024-01-16T11:52:12;8.10;58.00
14850;DHT22;7517;48.400;11.770;2024-01-16T11:54:40;8.10;57.80
14850;DHT22;7517;48.400;11.770;2024-01-16T11:57:25;8.20;58.10
14850;DHT22;7517;48.400;11.770;2024-01-16T12:00:05;8.20;57.50
14850;DHT22;7517;48.400;11.770;2024-01-16T12:02:52;8.30;57.40
14850;DHT22;7517;48.400;11.770;2024-01-16T12:05:20;8.40;57.00
14850;DHT22;7517;48.400;11.770;2024-01-16T12:07:49;8.40;57.40
14850;DHT22;7517;48.400;11.770;2024-01-16T12:10:18;8.40;57.20
14850;DHT22;7517;48.400;11.770;2024-01-16T12:12:47;8.40;57.10
14850;DHT22;7517;48.400;11.770;2024-01-16T12:15:18;8.50;56.70
14850;DHT22;7517;48.400;11.770;2024-01-16T12:17:56;8.40;56.50
14850;DHT22;7517;48.400;11.770;2024-01-16T12:20:26;8.40;56.20
14850;DHT22;7517;48.400;11.770;2024-01-16T12:22:59;8.40;56.70
14850;DHT22;7517;48.400;11.770;2024-01-16T12:25:29;8.40;56.60
14850;DHT22;7517;48.400;11.770;2024-01-16T12:27:59;8.40;56.60
14850;DHT22;7517;48.400;11.770;2024-01-16T12:30:29;8.40;56.40
14850;DHT22;7517;48.400;11.770;2024-01-16T12:33:07;8.30;56.30
14850;DHT22;7517;48.400;11.770;2024-01-16T12:35:36;8.30;56.00
14850;DHT22;7517;48.400;11.770;2024-01-16T12:38:06;8.30;56.50
14850;DHT22;7517;48.400;11.770;2024-01-16T12:40:35;8.20;56.60
14850;DHT22;7517;48.400;11.770;2024-01-16T12:43:04;8.20;56.60
14850;DHT22;7517;48.400;11.770;2024-01-16T12:45:33;8.20;56.50
14850;DHT22;7517;48.400;11.770;2024-01-16T12:48:01;8.10;56.30
14850;DHT22;7517;48.400;11.770;2024-01-16T12:50:30;8.10;56.30
14850;DHT22;7517;48.400;11.770;2024-01-16T12:53:04;8.10;56.10
14850;DHT22;7517;48.400;11.770;2024-01-16T12:55:34;8.00;55.90
14850;DHT22;7517;48.400;11.770;2024-01-16T12:58:16;8.00;56.20
14850;DHT22;7517;48.400;11.770;2024-01-16T13:00:47;7.90;55.60
14850;DHT22;7517;48.400;11.770;2024-01-16T13:03:15;7.90;56.10
14850;DHT22;7517;48.400;11.770;2024-01-16T13:05:44;7.90;56.30
14850;DHT22;7517;48.400;11.770;2024-01-16T13:08:18;7.90;56.30
14850;DHT22;7517;48.400;11.770;2024-01-16T13:10:46;7.90;55.80
14850;DHT22;7517;48.400;11.770;2024-01-16T13:13:16;7.90;56.20
14850;DHT22;7517;48.400;11.770;2024-01-16T13:15:46;7.90;56.30
14850;DHT22;7517;48.400;11.770;2024-01-16T13:18:19;7.90;56.00
14850;DHT22;7517;48.400;11.770;2024-01-16T13:20:48;7.90;55.70
14850;DHT22;7517;48.400;11.770;2024-01-16T13:23:16;7.90;55.80
14850;DHT22;7517;48.400;11.770;2024-01-16T13:25:46;7.90;56.10
14850;DHT22;7517;48.400;11.770;2024-01-16T13:28:17;7.90;56.10
14850;DHT22;7517;48.400;11.770;2024-01-16T13:30:49;7.90;55.90
14850;DHT22;7517;48.400;11.770;2024-01-16T13:33:17;7.90;56.00
14850;DHT22;7517;48.400;11.770;2024-01-16T13:35:46;7.80;56.10
14850;DHT22;7517;48.400;11.770;2024-01-16T13:38:14;7.90;56.00
14850;DHT22;7517;48.400;11.770;2024-01-16T13:40:42;7.90;55.70
14850;DHT22;7517;48.400;11.770;2024-01-16T13:43:10;7.90;55.80
14850;DHT22;7517;48.400;11.770;2024-01-16T13:45:38;7.90;55.90
14850;DHT22;7517;48.400;11.770;2024-01-16T13:48:08;7.90;55.90
14850;DHT22;7517;48.400;11.770;2024-01-16T13:50:35;7.90;55.80
14850;DHT22;7517;48.400;11.770;2024-01-16T13:53:04;7.80;55.50
14850;DHT22;7517;48.400;11.770;2024-01-16T13:55:31;7.80;56.00
14850;DHT22;7517;48.400;11.770;2024-01-16T13:57:59;7.80;56.20
14850;DHT22;7517;48.400;11.770;2024-01-16T14:00:26;7.80;56.20
14850;DHT22;7517;48.400;11.770;2024-01-16T14:02:53;7.80;56.40
14850;DHT22;7517;48.400;11.770;2024-01-16T14:05:22;7.80;56.10
14850;DHT22;7517;48.400;11.770;2024-01-16T14:07:52;7.80;55.80
14850;DHT22;7517;48.400;11.770;2024-01-16T14:10:21;7.70;55.60
14850;DHT22;7517;48.400;11.770;2024-01-16T14:12:51;7.80;55.80
14850;DHT22;7517;48.400;11.770;2024-01-16T14:15:19;7.80;56.00
14850;DHT22;7517;48.400;11.770;2024-01-16T14:17:50;7.70;56.30
14850;DHT22;7517;48.400;11.770;2024-01-16T14:20:19;7.70;56.30
14850;DHT22;7517;48.400;11.770;2024-01-16T14:22:50;7.70;56.50
14850;DHT22;7517;48.400;11.770;2024-01-16T14:25:18;7.70;56.50
14850;DHT22;7517;48.400;11.770;2024-01-16T14:27:48;7.70;56.30
14850;DHT22;7517;48.400;11.770;2024-01-16T14:30:22;7.60;56.10
14850;DHT22;7517;48.400;11.770;2024-01-16T14:32:51;7.60;56.10
14850;DHT22;7517;48.400;11.770;2024-01-16T14:35:20;7.60;55.80
14850;DHT22;7517;48.400;11.770;2024-01-16T14:37:50;7.60;56.20
14850;DHT22;7517;48.400;11.770;2024-01-16T14:40:18;7.60;56.20
14850;DHT22;7517;48.400;11.770;2024-01-16T14:42:51;7.50;56.30
14850;DHT22;7517;48.400;11.770;2024-01-16T14:45:19;7.50;55.90
14850;DHT22;7517;48.400;11.770;2024-01-16T14:47:47;7.50;55.80
14850;DHT22;7517;48.400;11.770;2024-01-16T14:50:15;7.40;55.90
14850;DHT22;7517;48.400;11.770;2024-01-16T14:52:43;7.40;56.20
14850;DHT22;7517;48.400;11.770;2024-01-16T14:55:12;7.30;56.40
14850;DHT22;7517;48.400;11.770;2024-01-16T14:57:39;7.30;56.40
14850;DHT22;7517;48.400;11.770;2024-01-16T15:00:10;7.30;56.40
14850;DHT22;7517;48.400;11.770;2024-01-16T15:02:45;7.30;56.50
14850;DHT22;7517;48.400;11.770;2024-01-16T15:05:13;7.30;56.70
14850;DHT22;7517;48.400;11.770;2024-01-16T15:07:41;7.20;56.80
14850;DHT22;7517;48.400;11.770;2024-01-16T15:10:11;7.20;57.10
14850;DHT22;7517;48.400;11.770;2024-01-16T15:12:42;7.20;57.10
14850;DHT22;7517;48.400;11.770;2024-01-16T15:15:11;7.20;57.20
14850;DHT22;7517;48.400;11.770;2024-01-16T15:17:40;7.20;57.30
14850;DHT22;7517;48.400;11.770;2024-01-16T15:20:10;7.20;57.90
14850;DHT22;7517;48.400;11.770;2024-01-16T15:22:39;7.20;57.40
14850;DHT22;7517;48.400;11.770;2024-01-16T15:25:11;7.10;57.30
14850;DHT22;7517;48.400;11.770;2024-01-16T15:27:41;7.10;57.20
14850;DHT22;7517;48.400;11.770;2024-01-16T15:30:09;7.10;57.30
14850;DHT22;7517;48.400;11.770;2024-01-16T15:32:39;7.10;57.40
14850;DHT22;7517;48.400;11.770;2024-01-16T15:35:06;7.10;57.50
14850;DHT22;7517;48.400;11.770;2024-01-16T15:37:34;7.00;57.50
14850;DHT22;7517;48.400;11.770;2024-01-16T15:40:04;7.00;57.50
14850;DHT22;7517;48.400;11.770;2024-01-16T15:42:35;7.00;57.60
14850;DHT22;7517;48.400;11.770;2024-01-16T15:45:07;7.00;57.60
14850;DHT22;7517;48.400;11.770;2024-01-16T15:47:39;7.00;57.50
14850;DHT22;7517;48.400;11.770;2024-01-16T15:50:08;6.90;57.50
14850;DHT22;7517;48.400;11.770;2024-01-16T15:52:36;6.90;57.60
14850;DHT22;7517;48.400;11.770;2024-01-16T15:55:04;6.90;57.40
14850;DHT22;7517;48.400;11.770;2024-01-16T15:57:31;6.90;57.60